sensor_id;sensor_type;location;lat;lon;timestamp;temperature;humidity
5697;DHT22;2873;50.966;7.210;2022-12-29T00:02:10;11.40;99.90
5697;DHT22;2873;50.966;7.210;2022-12-29T00:04:36;11.40;99.90
5697;DHT22;2873;50.966;7.210;2022-12-29T00:07:01;11.40;99.90
5697;DHT22;2873;50.966;7.210;2022-12-29T00:09:30;11.50;99.90
5697;DHT22;2873;50.966;7.210;2022-12-29T00:11:55;11.50;99.90
5697;DHT22;2873;50.966;7.210;2022-12-29T00:14:21;11.50;99.90
5697;DHT22;2873;50.966;7.210;2022-12-29T00:17:05;11.40;99.90
5697;DHT22;2873;50.966;7.210;2022-12-29T00:19:30;11.50;99.90
5697;DHT22;2873;50.966;7.210;2022-12-29T00:22:15;11.50;99.90
5697;DHT22;2873;50.966;7.210;2022-12-29T00:24:59;11.40;99.90
5697;DHT22;2873;50.966;7.210;2022-12-29T00:27:43;11.40;99.90
5697;DHT22;2873;50.966;7.210;2022-12-29T00:30:29;11.50;99.90
5697;DHT22;2873;50.966;7.210;2022-12-29T00:33:15;11.40;99.90
5697;DHT22;2873;50.966;7.210;2022-12-29T00:36:07;11.40;99.90
5697;DHT22;2873;50.966;7.210;2022-12-29T00:38:35;11.50;99.90
5697;DHT22;2873;50.966;7.210;2022-12-29T00:41:20;11.50;99.90
5697;DHT22;2873;50.966;7.210;2022-12-29T00:44:05;11.50;99.90
5697;DHT22;2873;50.966;7.210;2022-12-29T00:46:33;11.60;99.90
5697;DHT22;2873;50.966;7.210;2022-12-29T00:48:59;11.60;99.90
5697;DHT22;2873;50.966;7.210;2022-12-29T00:51:43;11.60;99.90
5697;DHT22;2873;50.966;7.210;2022-12-29T00:54:09;11.70;99.90
5697;DHT22;2873;50.966;7.210;2022-12-29T00:56:35;11.70;99.90
5697;DHT22;2873;50.966;7.210;2022-12-29T00:59:06;11.80;99.90
5697;DHT22;2873;50.966;7.210;2022-12-29T01:01:32;11.70;99.90
5697;DHT22;2873;50.966;7.210;2022-12-29T01:03:59;11.70;99.90
5697;DHT22;2873;50.966;7.210;2022-12-29T01:06:24;11.70;99.90
5697;DHT22;2873;50.966;7.210;2022-12-29T01:08:51;11.80;99.90
5697;DHT22;2873;50.966;7.210;2022-12-29T01:11:37;11.80;99.90
5697;DHT22;2873;50.966;7.210;2022-12-29T01:14:03;11.90;99.90
5697;DHT22;2873;50.966;7.210;2022-12-29T01:16:29;11.80;99.90
5697;DHT22;2873;50.966;7.210;2022-12-29T01:18:54;11.80;99.90
5697;DHT22;2873;50.966;7.210;2022-12-29T01:21:20;11.80;99.90
5697;DHT22;2873;50.966;7.210;2022-12-29T01:23:45;11.80;99.90
5697;DHT22;2873;50.966;7.210;2022-12-29T01:26:12;11.80;99.90
5697;DHT22;2873;50.966;7.210;2022-12-29T01:28:38;11.60;99.90
5697;DHT22;2873;50.966;7.210;2022-12-29T01:31:06;11.60;99.90
5697;DHT22;2873;50.966;7.210;2022-12-29T01:33:32;11.70;99.90
5697;DHT22;2873;50.966;7.210;2022-12-29T01:36:01;11.70;99.90
5697;DHT22;2873;50.966;7.210;2022-12-29T01:38:27;11.60;99.90
5697;DHT22;2873;50.966;7.210;2022-12-29T01:40:52;11.70;99.90
5697;DHT22;2873;50.966;7.210;2022-12-29T01:43:18;11.70;99.90
5697;DHT22;2873;50.966;7.210;2022-12-29T01:45:48;11.70;99.90
5697;DHT22;2873;50.966;7.210;2022-12-29T01:48:15;11.80;99.90
5697;DHT22;2873;50.966;7.210;2022-12-29T01:50:49;11.80;99.90
5697;DHT22;2873;50.966;7.210;2022-12-29T01:53:18;11.80;99.90
5697;DHT22;2873;50.966;7.210;2022-12-29T01:55:49;11.80;99.90
5697;DHT22;2873;50.966;7.210;2022-12-29T01:58:18;11.90;99.90
5697;DHT22;2873;50.966;7.210;2022-12-29T02:00:45;11.90;99.90
5697;DHT22;2873;50.966;7.210;2022-12-29T02:03:11;12.00;99.90
5697;DHT22;2873;50.966;7.210;2022-12-29T02:05:48;12.00;99.90
5697;DHT22;2873;50.966;7.210;2022-12-29T02:08:16;12.10;99.90
5697;DHT22;2873;50.966;7.210;2022-12-29T02:10:43;12.10;99.90
5697;DHT22;2873;50.966;7.210;2022-12-29T02:13:09;12.20;99.90
5697;DHT22;2873;50.966;7.210;2022-12-29T02:18:30;12.20;99.90
5697;DHT22;2873;50.966;7.210;2022-12-29T02:24:08;12.20;99.90
5697;DHT22;2873;50.966;7.210;2022-12-29T02:26:44;12.30;99.90
5697;DHT22;2873;50.966;7.210;2022-12-29T02:29:35;12.30;99.90
5697;DHT22;2873;50.966;7.210;2022-12-29T02:35:15;12.40;99.90
5697;DHT22;2873;50.966;7.210;2022-12-29T02:46:34;12.60;99.90
5697;DHT22;2873;50.966;7.210;2022-12-29T02:49:19;12.60;99.90
5697;DHT22;2873;50.966;7.210;2022-12-29T02:51:56;12.60;99.90
5697;DHT22;2873;50.966;7.210;2022-12-29T02:54:23;12.50;99.90
5697;DHT22;2873;50.966;7.210;2022-12-29T02:59:52;12.60;99.90
5697;DHT22;2873;50.966;7.210;2022-12-29T03:05:04;12.50;99.90
5697;DHT22;2873;50.966;7.210;2022-12-29T03:19:20;12.50;99.90
5697;DHT22;2873;50.966;7.210;2022-12-29T03:22:03;12.50;99.90
5697;DHT22;2873;50.966;7.210;2022-12-29T03:24:52;12.50;99.90
5697;DHT22;2873;50.966;7.210;2022-12-29T03:27:21;12.50;99.90
5697;DHT22;2873;50.966;7.210;2022-12-29T03:29:52;12.50;99.90
5697;DHT22;2873;50.966;7.210;2022-12-29T03:32:24;12.40;99.90
5697;DHT22;2873;50.966;7.210;2022-12-29T03:34:51;12.40;99.90
5697;DHT22;2873;50.966;7.210;2022-12-29T03:37:22;12.40;99.90
5697;DHT22;2873;50.966;7.210;2022-12-29T03:39:48;12.40;99.90
5697;DHT22;2873;50.966;7.210;2022-12-29T03:42:17;12.40;99.90
5697;DHT22;2873;50.966;7.210;2022-12-29T03:44:45;12.30;99.90
5697;DHT22;2873;50.966;7.210;2022-12-29T03:47:12;12.30;99.90
5697;DHT22;2873;50.966;7.210;2022-12-29T03:49:38;12.40;99.90
5697;DHT22;2873;50.966;7.210;2022-12-29T03:52:05;12.30;99.90
5697;DHT22;2873;50.966;7.210;2022-12-29T03:54:31;12.30;99.90
5697;DHT22;2873;50.966;7.210;2022-12-29T03:56:56;12.20;99.90
5697;DHT22;2873;50.966;7.210;2022-12-29T03:59:22;12.40;99.90
5697;DHT22;2873;50.966;7.210;2022-12-29T04:01:47;12.40;99.90
5697;DHT22;2873;50.966;7.210;2022-12-29T04:04:13;12.40;99.90
5697;DHT22;2873;50.966;7.210;2022-12-29T04:06:39;12.40;99.90
5697;DHT22;2873;50.966;7.210;2022-12-29T04:09:05;12.40;99.90
5697;DHT22;2873;50.966;7.210;2022-12-29T04:11:30;12.40;99.90
5697;DHT22;2873;50.966;7.210;2022-12-29T04:13:56;12.40;99.90
5697;DHT22;2873;50.966;7.210;2022-12-29T04:16:21;12.40;99.90
5697;DHT22;2873;50.966;7.210;2022-12-29T04:18:47;12.30;99.90
5697;DHT22;2873;50.966;7.210;2022-12-29T04:21:13;12.40;99.90
5697;DHT22;2873;50.966;7.210;2022-12-29T04:23:39;12.40;99.90
5697;DHT22;2873;50.966;7.210;2022-12-29T04:26:05;12.30;99.90
5697;DHT22;2873;50.966;7.210;2022-12-29T04:28:35;12.40;99.90
5697;DHT22;2873;50.966;7.210;2022-12-29T04:31:01;12.40;99.90
5697;DHT22;2873;50.966;7.210;2022-12-29T04:33:27;12.40;99.90
5697;DHT22;2873;50.966;7.210;2022-12-29T04:35:53;12.40;99.90
5697;DHT22;2873;50.966;7.210;2022-12-29T04:38:20;12.40;99.90
5697;DHT22;2873;50.966;7.210;2022-12-29T04:40:46;12.40;99.90
5697;DHT22;2873;50.966;7.210;2022-12-29T04:43:12;12.20;99.90
5697;DHT22;2873;50.966;7.210;2022-12-29T04:45:45;12.20;99.90
5697;DHT22;2873;50.966;7.210;2022-12-29T04:48:11;12.20;99.90
5697;DHT22;2873;50.966;7.210;2022-12-29T04:50:36;12.20;99.90
5697;DHT22;2873;50.966;7.210;2022-12-29T04:53:02;12.20;99.90
5697;DHT22;2873;50.966;7.210;2022-12-29T04:55:28;12.10;99.90
5697;DHT22;2873;50.966;7.210;2022-12-29T04:57:53;12.30;99.90
5697;DHT22;2873;50.966;7.210;2022-12-29T05:00:19;12.30;99.90
5697;DHT22;2873;50.966;7.210;2022-12-29T05:02:44;12.20;99.90
5697;DHT22;2873;50.966;7.210;2022-12-29T05:05:10;12.30;99.90
5697;DHT22;2873;50.966;7.210;2022-12-29T05:07:36;12.40;99.90
5697;DHT22;2873;50.966;7.210;2022-12-29T05:10:01;12.40;99.90
5697;DHT22;2873;50.966;7.210;2022-12-29T05:12:30;12.40;99.90
5697;DHT22;2873;50.966;7.210;2022-12-29T05:14:56;12.40;99.90
5697;DHT22;2873;50.966;7.210;2022-12-29T05:17:21;12.50;99.90
5697;DHT22;2873;50.966;7.210;2022-12-29T05:19:47;12.40;99.90
5697;DHT22;2873;50.966;7.210;2022-12-29T05:22:12;12.40;99.90
5697;DHT22;2873;50.966;7.210;2022-12-29T05:24:38;12.40;99.90
5697;DHT22;2873;50.966;7.210;2022-12-29T05:27:03;12.50;99.90
5697;DHT22;2873;50.966;7.210;2022-12-29T05:29:29;12.50;99.90
5697;DHT22;2873;50.966;7.210;2022-12-29T05:31:54;12.50;99.90
5697;DHT22;2873;50.966;7.210;2022-12-29T05:34:20;12.50;99.90
5697;DHT22;2873;50.966;7.210;2022-12-29T05:36:45;12.50;99.90
5697;DHT22;2873;50.966;7.210;2022-12-29T05:39:11;12.60;99.90
5697;DHT22;2873;50.966;7.210;2022-12-29T05:41:36;12.60;99.90
5697;DHT22;2873;50.966;7.210;2022-12-29T05:44:02;12.60;99.90
5697;DHT22;2873;50.966;7.210;2022-12-29T05:46:28;12.60;99.90
5697;DHT22;2873;50.966;7.210;2022-12-29T05:48:54;12.60;99.90
5697;DHT22;2873;50.966;7.210;2022-12-29T05:51:19;12.60;99.90
5697;DHT22;2873;50.966;7.210;2022-12-29T05:53:45;12.60;99.90
5697;DHT22;2873;50.966;7.210;2022-12-29T05:56:10;12.60;99.90
5697;DHT22;2873;50.966;7.210;2022-12-29T05:58:36;12.60;99.90
5697;DHT22;2873;50.966;7.210;2022-12-29T06:01:01;12.60;99.90
5697;DHT22;2873;50.966;7.210;2022-12-29T06:03:27;12.60;99.90
5697;DHT22;2873;50.966;7.210;2022-12-29T06:05:52;12.60;99.90
5697;DHT22;2873;50.966;7.210;2022-12-29T06:08:18;12.60;99.90
5697;DHT22;2873;50.966;7.210;2022-12-29T06:10:43;12.60;99.90
5697;DHT22;2873;50.966;7.210;2022-12-29T06:13:09;12.40;99.90
5697;DHT22;2873;50.966;7.210;2022-12-29T06:15:35;12.50;99.90
5697;DHT22;2873;50.966;7.210;2022-12-29T06:18:01;12.50;99.90
5697;DHT22;2873;50.966;7.210;2022-12-29T06:20:26;12.40;99.90
5697;DHT22;2873;50.966;7.210;2022-12-29T06:22:52;12.50;99.90
5697;DHT22;2873;50.966;7.210;2022-12-29T06:25:17;12.40;99.90
5697;DHT22;2873;50.966;7.210;2022-12-29T06:27:43;12.30;99.90
5697;DHT22;2873;50.966;7.210;2022-12-29T06:30:09;12.40;99.90
5697;DHT22;2873;50.966;7.210;2022-12-29T06:32:35;12.40;99.90
5697;DHT22;2873;50.966;7.210;2022-12-29T06:35:01;12.30;99.90
5697;DHT22;2873;50.966;7.210;2022-12-29T06:37:27;12.20;99.90
5697;DHT22;2873;50.966;7.210;2022-12-29T06:39:53;12.20;99.90
5697;DHT22;2873;50.966;7.210;2022-12-29T06:42:18;12.20;99.90
5697;DHT22;2873;50.966;7.210;2022-12-29T06:44:44;12.20;99.90
5697;DHT22;2873;50.966;7.210;2022-12-29T06:47:10;12.10;99.90
5697;DHT22;2873;50.966;7.210;2022-12-29T06:49:36;12.10;99.90
5697;DHT22;2873;50.966;7.210;2022-12-29T06:52:01;12.10;99.90
5697;DHT22;2873;50.966;7.210;2022-12-29T06:54:29;12.10;99.90
5697;DHT22;2873;50.966;7.210;2022-12-29T06:56:55;12.00;99.90
5697;DHT22;2873;50.966;7.210;2022-12-29T06:59:21;12.00;99.90
5697;DHT22;2873;50.966;7.210;2022-12-29T07:01:46;12.00;99.90
5697;DHT22;2873;50.966;7.210;2022-12-29T07:04:12;12.00;99.90
5697;DHT22;2873;50.966;7.210;2022-12-29T07:06:37;12.00;99.90
5697;DHT22;2873;50.966;7.210;2022-12-29T07:09:03;12.00;99.90
5697;DHT22;2873;50.966;7.210;2022-12-29T07:11:28;12.00;99.90
5697;DHT22;2873;50.966;7.210;2022-12-29T07:13:54;12.10;99.90
5697;DHT22;2873;50.966;7.210;2022-12-29T07:16:20;12.10;99.90
5697;DHT22;2873;50.966;7.210;2022-12-29T07:18:45;12.10;99.90
5697;DHT22;2873;50.966;7.210;2022-12-29T07:21:11;12.10;99.90
5697;DHT22;2873;50.966;7.210;2022-12-29T07:23:37;12.10;99.90
5697;DHT22;2873;50.966;7.210;2022-12-29T07:26:08;12.20;99.90
5697;DHT22;2873;50.966;7.210;2022-12-29T07:28:35;12.10;99.90
5697;DHT22;2873;50.966;7.210;2022-12-29T07:31:01;12.20;99.90
5697;DHT22;2873;50.966;7.210;2022-12-29T07:33:30;12.20;99.90
5697;DHT22;2873;50.966;7.210;2022-12-29T07:35:56;12.20;99.90
5697;DHT22;2873;50.966;7.210;2022-12-29T07:38:22;12.10;99.90
5697;DHT22;2873;50.966;7.210;2022-12-29T07:40:48;12.10;99.90
5697;DHT22;2873;50.966;7.210;2022-12-29T07:43:13;12.10;99.90
5697;DHT22;2873;50.966;7.210;2022-12-29T07:45:39;12.10;99.90
5697;DHT22;2873;50.966;7.210;2022-12-29T07:48:05;12.00;99.90
5697;DHT22;2873;50.966;7.210;2022-12-29T07:50:33;12.10;99.90
5697;DHT22;2873;50.966;7.210;2022-12-29T07:52:59;12.10;99.90
5697;DHT22;2873;50.966;7.210;2022-12-29T07:55:24;12.10;99.90
5697;DHT22;2873;50.966;7.210;2022-12-29T07:57:53;12.00;99.90
5697;DHT22;2873;50.966;7.210;2022-12-29T08:00:19;12.10;99.90
5697;DHT22;2873;50.966;7.210;2022-12-29T08:02:44;12.10;99.90
5697;DHT22;2873;50.966;7.210;2022-12-29T08:05:10;12.10;99.90
5697;DHT22;2873;50.966;7.210;2022-12-29T08:07:36;12.10;99.90
5697;DHT22;2873;50.966;7.210;2022-12-29T08:10:01;12.10;99.90
5697;DHT22;2873;50.966;7.210;2022-12-29T08:12:27;12.10;99.90
5697;DHT22;2873;50.966;7.210;2022-12-29T08:14:53;12.20;99.90
5697;DHT22;2873;50.966;7.210;2022-12-29T08:17:18;12.20;99.90
5697;DHT22;2873;50.966;7.210;2022-12-29T08:19:44;12.20;99.90
5697;DHT22;2873;50.966;7.210;2022-12-29T08:22:09;12.20;99.90
5697;DHT22;2873;50.966;7.210;2022-12-29T08:24:35;12.10;99.90
5697;DHT22;2873;50.966;7.210;2022-12-29T08:27:01;12.10;99.90
5697;DHT22;2873;50.966;7.210;2022-12-29T08:29:27;12.10;99.90
5697;DHT22;2873;50.966;7.210;2022-12-29T08:31:52;12.10;99.90
5697;DHT22;2873;50.966;7.210;2022-12-29T08:34:18;12.10;99.90
5697;DHT22;2873;50.966;7.210;2022-12-29T08:36:43;12.20;99.90
5697;DHT22;2873;50.966;7.210;2022-12-29T08:39:09;12.10;99.90
5697;DHT22;2873;50.966;7.210;2022-12-29T08:41:34;12.10;99.90
5697;DHT22;2873;50.966;7.210;2022-12-29T08:44:00;12.10;99.90
5697;DHT22;2873;50.966;7.210;2022-12-29T08:46:25;12.10;99.90
5697;DHT22;2873;50.966;7.210;2022-12-29T08:48:51;12.20;99.90
5697;DHT22;2873;50.966;7.210;2022-12-29T08:51:17;12.20;99.90
5697;DHT22;2873;50.966;7.210;2022-12-29T08:53:43;12.10;99.90
5697;DHT22;2873;50.966;7.210;2022-12-29T08:56:09;12.20;99.90
5697;DHT22;2873;50.966;7.210;2022-12-29T08:58:35;12.20;99.90
5697;DHT22;2873;50.966;7.210;2022-12-29T09:01:01;12.20;99.90
5697;DHT22;2873;50.966;7.210;2022-12-29T09:03:27;12.20;99.90
5697;DHT22;2873;50.966;7.210;2022-12-29T09:05:53;12.20;99.90
5697;DHT22;2873;50.966;7.210;2022-12-29T09:08:20;12.10;99.90
5697;DHT22;2873;50.966;7.210;2022-12-29T09:10:46;12.10;99.90
5697;DHT22;2873;50.966;7.210;2022-12-29T09:13:12;12.20;99.90
5697;DHT22;2873;50.966;7.210;2022-12-29T09:15:38;12.00;99.90
5697;DHT22;2873;50.966;7.210;2022-12-29T09:18:04;12.20;99.90
5697;DHT22;2873;50.966;7.210;2022-12-29T09:20:29;12.10;99.90
5697;DHT22;2873;50.966;7.210;2022-12-29T09:22:55;12.20;99.90
5697;DHT22;2873;50.966;7.210;2022-12-29T09:25:21;12.30;99.90
5697;DHT22;2873;50.966;7.210;2022-12-29T09:27:50;12.50;99.90
5697;DHT22;2873;50.966;7.210;2022-12-29T09:30:17;12.30;99.90
5697;DHT22;2873;50.966;7.210;2022-12-29T09:32:43;12.10;99.90
5697;DHT22;2873;50.966;7.210;2022-12-29T09:35:09;12.20;99.90
5697;DHT22;2873;50.966;7.210;2022-12-29T09:37:34;12.20;99.90
5697;DHT22;2873;50.966;7.210;2022-12-29T09:40:00;12.20;99.90
5697;DHT22;2873;50.966;7.210;2022-12-29T09:43:00;12.10;99.90
5697;DHT22;2873;50.966;7.210;2022-12-29T09:45:34;12.20;99.90
5697;DHT22;2873;50.966;7.210;2022-12-29T09:48:04;12.30;99.90
5697;DHT22;2873;50.966;7.210;2022-12-29T09:50:36;12.40;99.90
5697;DHT22;2873;50.966;7.210;2022-12-29T09:53:39;12.60;99.90
5697;DHT22;2873;50.966;7.210;2022-12-29T09:56:05;12.70;99.90
5697;DHT22;2873;50.966;7.210;2022-12-29T09:58:38;12.80;99.90
5697;DHT22;2873;50.966;7.210;2022-12-29T10:01:07;12.70;99.90
5697;DHT22;2873;50.966;7.210;2022-12-29T10:09:16;12.90;99.90
5697;DHT22;2873;50.966;7.210;2022-12-29T10:12:11;12.80;99.90
5697;DHT22;2873;50.966;7.210;2022-12-29T10:15:31;12.90;99.90
5697;DHT22;2873;50.966;7.210;2022-12-29T10:17:41;12.90;99.90
5697;DHT22;2873;50.966;7.210;2022-12-29T10:20:37;12.90;99.90
5697;DHT22;2873;50.966;7.210;2022-12-29T10:25:48;12.80;99.90
5697;DHT22;2873;50.966;7.210;2022-12-29T10:28:38;12.90;99.90
5697;DHT22;2873;50.966;7.210;2022-12-29T10:31:13;13.00;99.90
5697;DHT22;2873;50.966;7.210;2022-12-29T10:33:42;12.90;99.90
5697;DHT22;2873;50.966;7.210;2022-12-29T10:36:34;13.10;99.90
5697;DHT22;2873;50.966;7.210;2022-12-29T10:39:22;13.00;99.90
5697;DHT22;2873;50.966;7.210;2022-12-29T10:41:55;12.60;99.90
5697;DHT22;2873;50.966;7.210;2022-12-29T10:44:29;12.70;99.90
5697;DHT22;2873;50.966;7.210;2022-12-29T10:47:01;12.80;99.90
5697;DHT22;2873;50.966;7.210;2022-12-29T10:49:30;12.80;99.90
5697;DHT22;2873;50.966;7.210;2022-12-29T10:52:00;12.60;99.90
5697;DHT22;2873;50.966;7.210;2022-12-29T10:54:36;12.50;99.90
5697;DHT22;2873;50.966;7.210;2022-12-29T10:57:09;12.50;99.90
5697;DHT22;2873;50.966;7.210;2022-12-29T10:59:37;12.60;99.90
5697;DHT22;2873;50.966;7.210;2022-12-29T11:04:41;12.40;99.90
5697;DHT22;2873;50.966;7.210;2022-12-29T11:07:08;12.50;99.90
5697;DHT22;2873;50.966;7.210;2022-12-29T11:09:36;12.50;99.90
5697;DHT22;2873;50.966;7.210;2022-12-29T11:14:45;12.60;99.90
5697;DHT22;2873;50.966;7.210;2022-12-29T11:17:15;12.40;99.90
5697;DHT22;2873;50.966;7.210;2022-12-29T11:19:42;12.50;99.90
5697;DHT22;2873;50.966;7.210;2022-12-29T11:22:21;12.50;99.90
5697;DHT22;2873;50.966;7.210;2022-12-29T11:24:50;12.50;99.90
5697;DHT22;2873;50.966;7.210;2022-12-29T11:27:21;12.50;99.90
5697;DHT22;2873;50.966;7.210;2022-12-29T11:29:49;12.50;99.90
5697;DHT22;2873;50.966;7.210;2022-12-29T11:34:44;12.50;99.90
5697;DHT22;2873;50.966;7.210;2022-12-29T11:40:05;12.50;99.90
5697;DHT22;2873;50.966;7.210;2022-12-29T11:42:55;12.40;99.90
5697;DHT22;2873;50.966;7.210;2022-12-29T11:45:26;12.40;99.90
5697;DHT22;2873;50.966;7.210;2022-12-29T11:50:29;12.50;99.90
5697;DHT22;2873;50.966;7.210;2022-12-29T11:53:02;12.50;99.90
5697;DHT22;2873;50.966;7.210;2022-12-29T11:55:29;12.60;99.90
5697;DHT22;2873;50.966;7.210;2022-12-29T11:57:58;12.60;99.90
5697;DHT22;2873;50.966;7.210;2022-12-29T12:00:24;12.60;99.90
5697;DHT22;2873;50.966;7.210;2022-12-29T12:05:41;12.60;99.90
5697;DHT22;2873;50.966;7.210;2022-12-29T12:08:23;12.50;99.90
5697;DHT22;2873;50.966;7.210;2022-12-29T12:13:56;12.60;99.90
5697;DHT22;2873;50.966;7.210;2022-12-29T12:17:04;12.60;99.90
5697;DHT22;2873;50.966;7.210;2022-12-29T12:22:07;12.40;99.90
5697;DHT22;2873;50.966;7.210;2022-12-29T12:24:47;12.40;99.90
5697;DHT22;2873;50.966;7.210;2022-12-29T12:27:20;12.40;99.90
5697;DHT22;2873;50.966;7.210;2022-12-29T12:29:56;12.40;99.90
5697;DHT22;2873;50.966;7.210;2022-12-29T12:32:30;12.40;99.90
5697;DHT22;2873;50.966;7.210;2022-12-29T12:35:03;12.40;99.90
5697;DHT22;2873;50.966;7.210;2022-12-29T12:53:56;12.30;99.90
5697;DHT22;2873;50.966;7.210;2022-12-29T12:59:14;12.50;99.90
5697;DHT22;2873;50.966;7.210;2022-12-29T13:04:43;12.40;99.90
5697;DHT22;2873;50.966;7.210;2022-12-29T13:07:32;12.30;99.90
5697;DHT22;2873;50.966;7.210;2022-12-29T13:10:42;12.40;99.90
5697;DHT22;2873;50.966;7.210;2022-12-29T13:13:39;12.40;99.90
5697;DHT22;2873;50.966;7.210;2022-12-29T13:19:24;12.40;99.90
5697;DHT22;2873;50.966;7.210;2022-12-29T13:24:25;12.50;99.90
5697;DHT22;2873;50.966;7.210;2022-12-29T13:35:00;12.30;99.90
5697;DHT22;2873;50.966;7.210;2022-12-29T13:37:29;12.30;99.90
5697;DHT22;2873;50.966;7.210;2022-12-29T13:40:11;12.30;99.90
5697;DHT22;2873;50.966;7.210;2022-12-29T13:42:38;12.30;99.90
5697;DHT22;2873;50.966;7.210;2022-12-29T13:45:05;12.30;99.90
5697;DHT22;2873;50.966;7.210;2022-12-29T13:47:46;12.20;99.90
5697;DHT22;2873;50.966;7.210;2022-12-29T13:50:19;12.30;99.90
5697;DHT22;2873;50.966;7.210;2022-12-29T13:58:49;11.90;99.90
5697;DHT22;2873;50.966;7.210;2022-12-29T14:01:21;11.90;99.90
5697;DHT22;2873;50.966;7.210;2022-12-29T14:03:53;11.80;99.90
5697;DHT22;2873;50.966;7.210;2022-12-29T14:08:57;11.80;99.90
5697;DHT22;2873;50.966;7.210;2022-12-29T14:11:33;11.90;99.90
5697;DHT22;2873;50.966;7.210;2022-12-29T14:14:14;11.80;99.90
5697;DHT22;2873;50.966;7.210;2022-12-29T14:16:47;11.90;99.90
5697;DHT22;2873;50.966;7.210;2022-12-29T14:19:26;11.70;99.90
5697;DHT22;2873;50.966;7.210;2022-12-29T14:21:57;11.60;99.90
5697;DHT22;2873;50.966;7.210;2022-12-29T14:24:44;11.70;99.90
5697;DHT22;2873;50.966;7.210;2022-12-29T14:34:49;11.60;99.90
5697;DHT22;2873;50.966;7.210;2022-12-29T14:37:29;11.70;99.90
5697;DHT22;2873;50.966;7.210;2022-12-29T14:42:51;11.40;99.90
5697;DHT22;2873;50.966;7.210;2022-12-29T14:52:55;11.10;99.90
5697;DHT22;2873;50.966;7.210;2022-12-29T14:55:46;10.90;99.90
5697;DHT22;2873;50.966;7.210;2022-12-29T14:58:31;10.90;99.90
5697;DHT22;2873;50.966;7.210;2022-12-29T15:00:59;10.90;99.90
5697;DHT22;2873;50.966;7.210;2022-12-29T15:03:56;10.90;99.90
5697;DHT22;2873;50.966;7.210;2022-12-29T15:06:25;10.90;99.90
5697;DHT22;2873;50.966;7.210;2022-12-29T15:09:33;10.80;99.90
5697;DHT22;2873;50.966;7.210;2022-12-29T15:14:39;10.80;99.90
5697;DHT22;2873;50.966;7.210;2022-12-29T15:17:30;10.90;99.90
5697;DHT22;2873;50.966;7.210;2022-12-29T15:19:58;10.80;99.90
5697;DHT22;2873;50.966;7.210;2022-12-29T15:22:24;10.70;99.90
5697;DHT22;2873;50.966;7.210;2022-12-29T15:24:53;10.70;99.90
5697;DHT22;2873;50.966;7.210;2022-12-29T15:27:22;10.70;99.90
5697;DHT22;2873;50.966;7.210;2022-12-29T15:29:50;10.70;99.90
5697;DHT22;2873;50.966;7.210;2022-12-29T15:32:28;10.70;99.90
5697;DHT22;2873;50.966;7.210;2022-12-29T15:34:56;10.60;99.90
5697;DHT22;2873;50.966;7.210;2022-12-29T15:37:28;10.60;99.90
5697;DHT22;2873;50.966;7.210;2022-12-29T15:39:57;10.60;99.90
5697;DHT22;2873;50.966;7.210;2022-12-29T15:42:50;10.50;99.90
5697;DHT22;2873;50.966;7.210;2022-12-29T15:45:19;10.50;99.90
5697;DHT22;2873;50.966;7.210;2022-12-29T15:47:45;10.40;99.90
5697;DHT22;2873;50.966;7.210;2022-12-29T15:50:15;10.40;99.90
5697;DHT22;2873;50.966;7.210;2022-12-29T15:52:42;10.30;99.90
5697;DHT22;2873;50.966;7.210;2022-12-29T15:55:21;10.40;99.90
5697;DHT22;2873;50.966;7.210;2022-12-29T15:57:47;10.30;99.90
5697;DHT22;2873;50.966;7.210;2022-12-29T16:00:25;10.30;99.90
5697;DHT22;2873;50.966;7.210;2022-12-29T16:02:52;10.20;99.90
5697;DHT22;2873;50.966;7.210;2022-12-29T16:05:18;10.20;99.90
5697;DHT22;2873;50.966;7.210;2022-12-29T16:07:56;10.10;99.90
5697;DHT22;2873;50.966;7.210;2022-12-29T16:10:26;10.10;99.90
5697;DHT22;2873;50.966;7.210;2022-12-29T16:12:54;10.00;99.90
5697;DHT22;2873;50.966;7.210;2022-12-29T16:15:20;10.00;99.90
5697;DHT22;2873;50.966;7.210;2022-12-29T16:17:49;9.90;99.90
5697;DHT22;2873;50.966;7.210;2022-12-29T16:20:37;9.90;99.90
5697;DHT22;2873;50.966;7.210;2022-12-29T16:23:04;9.90;99.90
5697;DHT22;2873;50.966;7.210;2022-12-29T16:25:32;9.80;99.90
5697;DHT22;2873;50.966;7.210;2022-12-29T16:28:01;9.90;99.90
5697;DHT22;2873;50.966;7.210;2022-12-29T16:30:32;9.80;99.90
5697;DHT22;2873;50.966;7.210;2022-12-29T16:33:03;9.80;99.90
5697;DHT22;2873;50.966;7.210;2022-12-29T16:35:39;9.80;99.90
5697;DHT22;2873;50.966;7.210;2022-12-29T16:41:00;9.80;99.90
5697;DHT22;2873;50.966;7.210;2022-12-29T16:43:34;9.80;99.90
5697;DHT22;2873;50.966;7.210;2022-12-29T16:48:32;9.90;99.90
5697;DHT22;2873;50.966;7.210;2022-12-29T16:51:36;9.80;99.90
5697;DHT22;2873;50.966;7.210;2022-12-29T16:54:03;9.70;99.90
5697;DHT22;2873;50.966;7.210;2022-12-29T16:56:32;9.70;99.90
5697;DHT22;2873;50.966;7.210;2022-12-29T16:59:08;9.70;99.90
5697;DHT22;2873;50.966;7.210;2022-12-29T17:01:41;9.70;99.90
5697;DHT22;2873;50.966;7.210;2022-12-29T17:04:10;9.70;99.90
5697;DHT22;2873;50.966;7.210;2022-12-29T17:06:36;9.60;99.90
5697;DHT22;2873;50.966;7.210;2022-12-29T17:09:02;9.60;99.90
5697;DHT22;2873;50.966;7.210;2022-12-29T17:11:31;9.70;99.90
5697;DHT22;2873;50.966;7.210;2022-12-29T17:16:46;9.60;99.90
5697;DHT22;2873;50.966;7.210;2022-12-29T17:19:19;9.60;99.90
5697;DHT22;2873;50.966;7.210;2022-12-29T17:21:45;9.50;99.90
5697;DHT22;2873;50.966;7.210;2022-12-29T17:24:17;9.60;99.90
5697;DHT22;2873;50.966;7.210;2022-12-29T17:26:44;9.50;99.90
5697;DHT22;2873;50.966;7.210;2022-12-29T17:29:26;9.60;99.90
5697;DHT22;2873;50.966;7.210;2022-12-29T17:31:54;9.60;99.90
5697;DHT22;2873;50.966;7.210;2022-12-29T17:34:19;9.60;99.90
5697;DHT22;2873;50.966;7.210;2022-12-29T17:36:45;9.60;99.90
5697;DHT22;2873;50.966;7.210;2022-12-29T17:39:10;9.70;99.90
5697;DHT22;2873;50.966;7.210;2022-12-29T17:41:36;9.70;99.90
5697;DHT22;2873;50.966;7.210;2022-12-29T17:44:03;9.70;99.90
5697;DHT22;2873;50.966;7.210;2022-12-29T17:46:29;9.60;99.90
5697;DHT22;2873;50.966;7.210;2022-12-29T17:48:55;9.60;99.90
5697;DHT22;2873;50.966;7.210;2022-12-29T17:51:20;9.60;99.90
5697;DHT22;2873;50.966;7.210;2022-12-29T17:53:46;9.60;99.90
5697;DHT22;2873;50.966;7.210;2022-12-29T17:56:12;9.70;99.90
5697;DHT22;2873;50.966;7.210;2022-12-29T17:58:38;9.60;99.90
5697;DHT22;2873;50.966;7.210;2022-12-29T18:01:03;9.70;99.90
5697;DHT22;2873;50.966;7.210;2022-12-29T18:03:36;9.70;99.90
5697;DHT22;2873;50.966;7.210;2022-12-29T18:06:03;9.70;99.90
5697;DHT22;2873;50.966;7.210;2022-12-29T18:08:31;9.60;99.90
5697;DHT22;2873;50.966;7.210;2022-12-29T18:10:58;9.50;99.90
5697;DHT22;2873;50.966;7.210;2022-12-29T18:13:27;9.50;99.90
5697;DHT22;2873;50.966;7.210;2022-12-29T18:15:54;9.50;99.90
5697;DHT22;2873;50.966;7.210;2022-12-29T18:18:22;9.40;99.90
5697;DHT22;2873;50.966;7.210;2022-12-29T18:20:51;9.50;99.90
5697;DHT22;2873;50.966;7.210;2022-12-29T18:23:26;9.50;99.90
5697;DHT22;2873;50.966;7.210;2022-12-29T18:28:20;9.50;99.90
5697;DHT22;2873;50.966;7.210;2022-12-29T18:30:45;9.50;99.90
5697;DHT22;2873;50.966;7.210;2022-12-29T18:33:14;9.50;99.90
5697;DHT22;2873;50.966;7.210;2022-12-29T18:38:14;9.60;99.90
5697;DHT22;2873;50.966;7.210;2022-12-29T18:40:40;9.60;99.90
5697;DHT22;2873;50.966;7.210;2022-12-29T18:43:05;9.70;99.90
5697;DHT22;2873;50.966;7.210;2022-12-29T18:45:32;9.60;99.90
5697;DHT22;2873;50.966;7.210;2022-12-29T18:47:59;9.70;99.90